sensor_id;sensor_type;location;lat;lon;timestamp;P1;durP1;ratioP1;P2;durP2;ratioP2
19219;SDS011;9744;49.364;7.484;2023-02-11T00:02:07;111.53;;;47.15;;
19219;SDS011;9744;49.364;7.484;2023-02-11T00:04:35;115.90;;;46.77;;
19219;SDS011;9744;49.364;7.484;2023-02-11T00:07:02;123.07;;;47.17;;
19219;SDS011;9744;49.364;7.484;2023-02-11T00:09:29;115.60;;;46.83;;
19219;SDS011;9744;49.364;7.484;2023-02-11T00:11:57;113.57;;;46.63;;
19219;SDS011;9744;49.364;7.484;2023-02-11T00:14:25;117.57;;;44.73;;
19219;SDS011;9744;49.364;7.484;2023-02-11T00:16:52;109.37;;;45.87;;
19219;SDS011;9744;49.364;7.484;2023-02-11T00:19:19;113.13;;;47.20;;
19219;SDS011;9744;49.364;7.484;2023-02-11T00:21:46;117.97;;;45.90;;
19219;SDS011;9744;49.364;7.484;2023-02-11T00:24:14;111.97;;;45.73;;
19219;SDS011;9744;49.364;7.484;2023-02-11T00:26:41;110.20;;;46.60;;
19219;SDS011;9744;49.364;7.484;2023-02-11T00:29:09;111.70;;;45.97;;
19219;SDS011;9744;49.364;7.484;2023-02-11T00:31:38;120.03;;;47.73;;
19219;SDS011;9744;49.364;7.484;2023-02-11T00:34:06;117.83;;;47.07;;
19219;SDS011;9744;49.364;7.484;2023-02-11T00:36:33;119.77;;;47.07;;
19219;SDS011;9744;49.364;7.484;2023-02-11T00:39:01;108.60;;;46.03;;
19219;SDS011;9744;49.364;7.484;2023-02-11T00:41:28;113.20;;;46.70;;
19219;SDS011;9744;49.364;7.484;2023-02-11T00:43:58;109.27;;;46.17;;
19219;SDS011;9744;49.364;7.484;2023-02-11T00:46:25;120.77;;;47.97;;
19219;SDS011;9744;49.364;7.484;2023-02-11T00:48:54;119.10;;;47.70;;
19219;SDS011;9744;49.364;7.484;2023-02-11T00:51:23;118.15;;;46.05;;
19219;SDS011;9744;49.364;7.484;2023-02-11T00:53:50;113.13;;;47.10;;
19219;SDS011;9744;49.364;7.484;2023-02-11T00:56:17;122.83;;;47.33;;
19219;SDS011;9744;49.364;7.484;2023-02-11T00:58:45;115.87;;;47.17;;
19219;SDS011;9744;49.364;7.484;2023-02-11T01:01:12;121.53;;;47.37;;
19219;SDS011;9744;49.364;7.484;2023-02-11T01:03:41;107.30;;;47.10;;
19219;SDS011;9744;49.364;7.484;2023-02-11T01:06:10;108.50;;;46.30;;
19219;SDS011;9744;49.364;7.484;2023-02-11T01:08:37;118.77;;;47.40;;
19219;SDS011;9744;49.364;7.484;2023-02-11T01:11:07;113.53;;;45.30;;
19219;SDS011;9744;49.364;7.484;2023-02-11T01:13:38;116.30;;;46.13;;
19219;SDS011;9744;49.364;7.484;2023-02-11T01:16:07;117.93;;;45.87;;
19219;SDS011;9744;49.364;7.484;2023-02-11T01:18:36;113.77;;;46.53;;
19219;SDS011;9744;49.364;7.484;2023-02-11T01:21:04;125.20;;;47.33;;
19219;SDS011;9744;49.364;7.484;2023-02-11T01:23:33;109.13;;;44.73;;
19219;SDS011;9744;49.364;7.484;2023-02-11T01:26:00;114.93;;;46.10;;
19219;SDS011;9744;49.364;7.484;2023-02-11T01:28:28;112.60;;;47.20;;
19219;SDS011;9744;49.364;7.484;2023-02-11T01:30:58;115.03;;;47.83;;
19219;SDS011;9744;49.364;7.484;2023-02-11T01:33:26;113.73;;;46.30;;
19219;SDS011;9744;49.364;7.484;2023-02-11T01:35:53;109.93;;;45.50;;
19219;SDS011;9744;49.364;7.484;2023-02-11T01:38:22;117.03;;;47.53;;
19219;SDS011;9744;49.364;7.484;2023-02-11T01:40:53;120.57;;;47.57;;
19219;SDS011;9744;49.364;7.484;2023-02-11T01:43:22;117.03;;;46.37;;
19219;SDS011;9744;49.364;7.484;2023-02-11T01:46:00;114.03;;;46.53;;
19219;SDS011;9744;49.364;7.484;2023-02-11T01:48:31;127.63;;;47.60;;
19219;SDS011;9744;49.364;7.484;2023-02-11T01:51:03;107.50;;;45.60;;
19219;SDS011;9744;49.364;7.484;2023-02-11T01:53:34;116.47;;;46.60;;
19219;SDS011;9744;49.364;7.484;2023-02-11T01:56:23;113.80;;;46.27;;
19219;SDS011;9744;49.364;7.484;2023-02-11T01:59:10;108.67;;;44.87;;
19219;SDS011;9744;49.364;7.484;2023-02-11T02:01:40;111.30;;;46.53;;
19219;SDS011;9744;49.364;7.484;2023-02-11T02:04:11;116.77;;;46.87;;
19219;SDS011;9744;49.364;7.484;2023-02-11T02:06:45;107.17;;;45.03;;
19219;SDS011;9744;49.364;7.484;2023-02-11T02:09:17;115.30;;;44.87;;
19219;SDS011;9744;49.364;7.484;2023-02-11T02:11:50;109.03;;;44.43;;
19219;SDS011;9744;49.364;7.484;2023-02-11T02:14:17;111.50;;;45.73;;
19219;SDS011;9744;49.364;7.484;2023-02-11T02:16:45;110.27;;;43.90;;
19219;SDS011;9744;49.364;7.484;2023-02-11T02:19:18;105.13;;;43.60;;
19219;SDS011;9744;49.364;7.484;2023-02-11T02:22:20;111.07;;;45.07;;
19219;SDS011;9744;49.364;7.484;2023-02-11T02:25:18;104.10;;;42.57;;
19219;SDS011;9744;49.364;7.484;2023-02-11T02:28:11;106.93;;;43.17;;
19219;SDS011;9744;49.364;7.484;2023-02-11T02:31:00;98.43;;;41.30;;
19219;SDS011;9744;49.364;7.484;2023-02-11T02:33:45;100.03;;;42.77;;
19219;SDS011;9744;49.364;7.484;2023-02-11T02:36:21;97.60;;;41.90;;
19219;SDS011;9744;49.364;7.484;2023-02-11T02:38:54;94.33;;;40.00;;
19219;SDS011;9744;49.364;7.484;2023-02-11T02:41:26;99.53;;;40.67;;
19219;SDS011;9744;49.364;7.484;2023-02-11T02:43:56;99.83;;;40.70;;
19219;SDS011;9744;49.364;7.484;2023-02-11T02:46:25;102.03;;;40.67;;
19219;SDS011;9744;49.364;7.484;2023-02-11T02:48:56;105.53;;;41.37;;
19219;SDS011;9744;49.364;7.484;2023-02-11T02:51:27;91.33;;;38.80;;
19219;SDS011;9744;49.364;7.484;2023-02-11T02:54:27;96.97;;;37.90;;
19219;SDS011;9744;49.364;7.484;2023-02-11T02:57:07;94.23;;;39.70;;
19219;SDS011;9744;49.364;7.484;2023-02-11T02:59:47;92.10;;;39.37;;
19219;SDS011;9744;49.364;7.484;2023-02-11T03:02:28;92.47;;;38.33;;
19219;SDS011;9744;49.364;7.484;2023-02-11T03:05:02;90.07;;;38.67;;
19219;SDS011;9744;49.364;7.484;2023-02-11T03:07:39;91.90;;;39.00;;
19219;SDS011;9744;49.364;7.484;2023-02-11T03:10:11;93.77;;;40.37;;
19219;SDS011;9744;49.364;7.484;2023-02-11T03:12:42;96.77;;;40.37;;
19219;SDS011;9744;49.364;7.484;2023-02-11T03:15:11;98.23;;;40.37;;
19219;SDS011;9744;49.364;7.484;2023-02-11T03:17:39;92.10;;;40.17;;
19219;SDS011;9744;49.364;7.484;2023-02-11T03:20:12;97.83;;;41.33;;
19219;SDS011;9744;49.364;7.484;2023-02-11T03:22:44;95.97;;;41.13;;
19219;SDS011;9744;49.364;7.484;2023-02-11T03:25:15;95.03;;;40.30;;
19219;SDS011;9744;49.364;7.484;2023-02-11T03:27:44;94.20;;;39.00;;
19219;SDS011;9744;49.364;7.484;2023-02-11T03:30:17;87.67;;;38.63;;
19219;SDS011;9744;49.364;7.484;2023-02-11T03:32:48;84.93;;;36.60;;
19219;SDS011;9744;49.364;7.484;2023-02-11T03:35:20;82.20;;;35.93;;
19219;SDS011;9744;49.364;7.484;2023-02-11T03:37:50;88.47;;;37.40;;
19219;SDS011;9744;49.364;7.484;2023-02-11T03:40:20;85.63;;;37.13;;
19219;SDS011;9744;49.364;7.484;2023-02-11T03:42:52;90.63;;;36.60;;
19219;SDS011;9744;49.364;7.484;2023-02-11T03:45:23;84.97;;;36.67;;
19219;SDS011;9744;49.364;7.484;2023-02-11T03:47:53;87.93;;;36.30;;
19219;SDS011;9744;49.364;7.484;2023-02-11T03:50:27;88.53;;;37.40;;
19219;SDS011;9744;49.364;7.484;2023-02-11T03:52:57;88.67;;;36.70;;
19219;SDS011;9744;49.364;7.484;2023-02-11T03:55:27;92.33;;;38.50;;
19219;SDS011;9744;49.364;7.484;2023-02-11T03:57:56;86.80;;;36.07;;
19219;SDS011;9744;49.364;7.484;2023-02-11T04:00:28;84.32;;;38.63;;
19219;SDS011;9744;49.364;7.484;2023-02-11T04:02:55;87.10;;;38.55;;
19219;SDS011;9744;49.364;7.484;2023-02-11T04:05:23;86.23;;;37.57;;
19219;SDS011;9744;49.364;7.484;2023-02-11T04:07:51;89.13;;;37.50;;
19219;SDS011;9744;49.364;7.484;2023-02-11T04:10:19;79.57;;;36.90;;
19219;SDS011;9744;49.364;7.484;2023-02-11T04:12:46;88.00;;;37.03;;
19219;SDS011;9744;49.364;7.484;2023-02-11T04:15:14;90.67;;;37.73;;
19219;SDS011;9744;49.364;7.484;2023-02-11T04:17:41;91.10;;;38.27;;
19219;SDS011;9744;49.364;7.484;2023-02-11T04:20:10;88.70;;;38.47;;
19219;SDS011;9744;49.364;7.484;2023-02-11T04:22:37;87.83;;;37.60;;
19219;SDS011;9744;49.364;7.484;2023-02-11T04:25:07;85.33;;;37.67;;
19219;SDS011;9744;49.364;7.484;2023-02-11T04:27:35;94.43;;;38.87;;
19219;SDS011;9744;49.364;7.484;2023-02-11T04:30:03;88.17;;;36.83;;
19219;SDS011;9744;49.364;7.484;2023-02-11T04:32:31;82.97;;;37.03;;
19219;SDS011;9744;49.364;7.484;2023-02-11T04:34:58;93.03;;;38.93;;
19219;SDS011;9744;49.364;7.484;2023-02-11T04:37:26;101.33;;;39.30;;
19219;SDS011;9744;49.364;7.484;2023-02-11T04:39:53;88.97;;;37.27;;
19219;SDS011;9744;49.364;7.484;2023-02-11T04:42:22;93.13;;;39.73;;
19219;SDS011;9744;49.364;7.484;2023-02-11T04:44:49;93.97;;;40.30;;
19219;SDS011;9744;49.364;7.484;2023-02-11T04:47:17;91.83;;;39.17;;
19219;SDS011;9744;49.364;7.484;2023-02-11T04:49:44;93.97;;;38.90;;
19219;SDS011;9744;49.364;7.484;2023-02-11T04:52:11;91.63;;;38.20;;
19219;SDS011;9744;49.364;7.484;2023-02-11T04:54:38;90.47;;;38.07;;
19219;SDS011;9744;49.364;7.484;2023-02-11T04:57:06;96.37;;;39.60;;
19219;SDS011;9744;49.364;7.484;2023-02-11T04:59:34;85.63;;;38.53;;
19219;SDS011;9744;49.364;7.484;2023-02-11T05:02:01;90.27;;;37.53;;
19219;SDS011;9744;49.364;7.484;2023-02-11T05:04:29;94.13;;;38.27;;
19219;SDS011;9744;49.364;7.484;2023-02-11T05:06:56;91.37;;;38.90;;
19219;SDS011;9744;49.364;7.484;2023-02-11T05:09:23;96.20;;;38.53;;
19219;SDS011;9744;49.364;7.484;2023-02-11T05:11:51;88.60;;;39.13;;
19219;SDS011;9744;49.364;7.484;2023-02-11T05:14:18;97.47;;;38.33;;
19219;SDS011;9744;49.364;7.484;2023-02-11T05:16:46;85.40;;;37.00;;
19219;SDS011;9744;49.364;7.484;2023-02-11T05:19:14;95.03;;;38.87;;
19219;SDS011;9744;49.364;7.484;2023-02-11T05:21:41;87.67;;;36.50;;
19219;SDS011;9744;49.364;7.484;2023-02-11T05:24:08;82.50;;;36.67;;
19219;SDS011;9744;49.364;7.484;2023-02-11T05:26:35;97.73;;;38.83;;
19219;SDS011;9744;49.364;7.484;2023-02-11T05:29:02;96.87;;;42.23;;
19219;SDS011;9744;49.364;7.484;2023-02-11T05:31:29;95.93;;;40.83;;
19219;SDS011;9744;49.364;7.484;2023-02-11T05:33:59;86.83;;;38.57;;
19219;SDS011;9744;49.364;7.484;2023-02-11T05:36:28;85.50;;;36.00;;
19219;SDS011;9744;49.364;7.484;2023-02-11T05:38:56;90.90;;;37.60;;
19219;SDS011;9744;49.364;7.484;2023-02-11T05:41:23;85.10;;;36.57;;
19219;SDS011;9744;49.364;7.484;2023-02-11T05:43:50;81.83;;;35.10;;
19219;SDS011;9744;49.364;7.484;2023-02-11T05:46:17;87.20;;;36.00;;
19219;SDS011;9744;49.364;7.484;2023-02-11T05:48:45;79.83;;;35.73;;
19219;SDS011;9744;49.364;7.484;2023-02-11T05:51:13;82.03;;;34.93;;
19219;SDS011;9744;49.364;7.484;2023-02-11T05:53:41;74.27;;;34.53;;
19219;SDS011;9744;49.364;7.484;2023-02-11T05:56:08;71.67;;;33.57;;
19219;SDS011;9744;49.364;7.484;2023-02-11T05:58:35;71.23;;;32.17;;
19219;SDS011;9744;49.364;7.484;2023-02-11T06:01:06;75.70;;;31.50;;
19219;SDS011;9744;49.364;7.484;2023-02-11T06:03:33;73.30;;;32.50;;
19219;SDS011;9744;49.364;7.484;2023-02-11T06:06:00;74.87;;;32.33;;
19219;SDS011;9744;49.364;7.484;2023-02-11T06:08:28;73.13;;;30.80;;
19219;SDS011;9744;49.364;7.484;2023-02-11T06:10:56;68.63;;;28.27;;
19219;SDS011;9744;49.364;7.484;2023-02-11T06:13:23;68.73;;;30.60;;
19219;SDS011;9744;49.364;7.484;2023-02-11T06:15:56;71.28;;;30.60;;
19219;SDS011;9744;49.364;7.484;2023-02-11T06:18:24;75.60;;;31.60;;
19219;SDS011;9744;49.364;7.484;2023-02-11T06:20:51;73.00;;;31.83;;
19219;SDS011;9744;49.364;7.484;2023-02-11T06:23:18;68.40;;;28.87;;
19219;SDS011;9744;49.364;7.484;2023-02-11T06:25:47;61.30;;;28.83;;
19219;SDS011;9744;49.364;7.484;2023-02-11T06:28:14;70.90;;;29.67;;
19219;SDS011;9744;49.364;7.484;2023-02-11T06:30:41;72.30;;;31.23;;
19219;SDS011;9744;49.364;7.484;2023-02-11T06:33:08;64.90;;;30.17;;
19219;SDS011;9744;49.364;7.484;2023-02-11T06:35:36;71.17;;;30.50;;
19219;SDS011;9744;49.364;7.484;2023-02-11T06:38:04;70.07;;;30.80;;
19219;SDS011;9744;49.364;7.484;2023-02-11T06:40:31;73.23;;;31.07;;
19219;SDS011;9744;49.364;7.484;2023-02-11T06:43:00;75.40;;;34.60;;
19219;SDS011;9744;49.364;7.484;2023-02-11T06:45:27;69.40;;;33.97;;
19219;SDS011;9744;49.364;7.484;2023-02-11T06:47:55;79.77;;;33.77;;
19219;SDS011;9744;49.364;7.484;2023-02-11T06:50:22;69.33;;;31.47;;
19219;SDS011;9744;49.364;7.484;2023-02-11T06:52:49;67.97;;;31.10;;
19219;SDS011;9744;49.364;7.484;2023-02-11T06:55:17;69.87;;;30.57;;
19219;SDS011;9744;49.364;7.484;2023-02-11T06:57:44;66.70;;;30.23;;
19219;SDS011;9744;49.364;7.484;2023-02-11T07:00:13;73.60;;;29.77;;
19219;SDS011;9744;49.364;7.484;2023-02-11T07:02:41;71.47;;;30.37;;
19219;SDS011;9744;49.364;7.484;2023-02-11T07:05:08;63.43;;;29.17;;
19219;SDS011;9744;49.364;7.484;2023-02-11T07:07:36;66.93;;;30.10;;
19219;SDS011;9744;49.364;7.484;2023-02-11T07:10:04;79.87;;;34.63;;
19219;SDS011;9744;49.364;7.484;2023-02-11T07:12:32;80.00;;;34.57;;
19219;SDS011;9744;49.364;7.484;2023-02-11T07:14:59;75.10;;;33.67;;
19219;SDS011;9744;49.364;7.484;2023-02-11T07:17:28;70.67;;;32.30;;
19219;SDS011;9744;49.364;7.484;2023-02-11T07:19:55;65.07;;;29.33;;
19219;SDS011;9744;49.364;7.484;2023-02-11T07:22:22;71.97;;;31.10;;
19219;SDS011;9744;49.364;7.484;2023-02-11T07:24:49;75.37;;;31.73;;
19219;SDS011;9744;49.364;7.484;2023-02-11T07:27:17;80.23;;;32.50;;
19219;SDS011;9744;49.364;7.484;2023-02-11T07:29:44;68.50;;;30.53;;
19219;SDS011;9744;49.364;7.484;2023-02-11T07:32:12;73.67;;;30.37;;
19219;SDS011;9744;49.364;7.484;2023-02-11T07:34:41;68.10;;;29.93;;
19219;SDS011;9744;49.364;7.484;2023-02-11T07:37:09;65.20;;;29.47;;
19219;SDS011;9744;49.364;7.484;2023-02-11T07:39:36;64.40;;;28.90;;
19219;SDS011;9744;49.364;7.484;2023-02-11T07:42:04;61.40;;;29.10;;
19219;SDS011;9744;49.364;7.484;2023-02-11T07:44:32;67.60;;;30.07;;
19219;SDS011;9744;49.364;7.484;2023-02-11T07:47:01;65.43;;;29.13;;
19219;SDS011;9744;49.364;7.484;2023-02-11T07:49:29;65.57;;;28.47;;
19219;SDS011;9744;49.364;7.484;2023-02-11T07:51:57;65.30;;;28.53;;
19219;SDS011;9744;49.364;7.484;2023-02-11T07:54:24;57.93;;;28.57;;
19219;SDS011;9744;49.364;7.484;2023-02-11T07:56:52;66.17;;;28.37;;
19219;SDS011;9744;49.364;7.484;2023-02-11T07:59:19;61.33;;;27.70;;
19219;SDS011;9744;49.364;7.484;2023-02-11T08:01:46;66.90;;;28.77;;
19219;SDS011;9744;49.364;7.484;2023-02-11T08:04:16;63.83;;;28.13;;
19219;SDS011;9744;49.364;7.484;2023-02-11T08:06:43;59.20;;;27.27;;
19219;SDS011;9744;49.364;7.484;2023-02-11T08:09:14;61.03;;;27.60;;
19219;SDS011;9744;49.364;7.484;2023-02-11T08:11:45;60.43;;;28.50;;
19219;SDS011;9744;49.364;7.484;2023-02-11T08:14:12;63.20;;;27.43;;
19219;SDS011;9744;49.364;7.484;2023-02-11T08:16:39;61.67;;;27.90;;
19219;SDS011;9744;49.364;7.484;2023-02-11T08:19:07;60.53;;;27.40;;
19219;SDS011;9744;49.364;7.484;2023-02-11T08:21:37;58.90;;;28.13;;
19219;SDS011;9744;49.364;7.484;2023-02-11T08:24:05;56.23;;;25.53;;
19219;SDS011;9744;49.364;7.484;2023-02-11T08:26:35;64.90;;;27.73;;
19219;SDS011;9744;49.364;7.484;2023-02-11T08:29:05;53.07;;;25.70;;
19219;SDS011;9744;49.364;7.484;2023-02-11T08:31:35;52.30;;;26.40;;
19219;SDS011;9744;49.364;7.484;2023-02-11T08:34:03;55.13;;;26.77;;
19219;SDS011;9744;49.364;7.484;2023-02-11T08:36:31;52.10;;;25.00;;
19219;SDS011;9744;49.364;7.484;2023-02-11T08:39:00;58.17;;;26.20;;
19219;SDS011;9744;49.364;7.484;2023-02-11T08:41:29;53.92;;;25.35;;
19219;SDS011;9744;49.364;7.484;2023-02-11T08:43:58;54.00;;;24.13;;
19219;SDS011;9744;49.364;7.484;2023-02-11T08:46:26;53.00;;;26.33;;
19219;SDS011;9744;49.364;7.484;2023-02-11T08:48:53;60.10;;;26.20;;
19219;SDS011;9744;49.364;7.484;2023-02-11T08:51:21;52.90;;;24.60;;
19219;SDS011;9744;49.364;7.484;2023-02-11T08:53:49;53.33;;;24.33;;
19219;SDS011;9744;49.364;7.484;2023-02-11T08:56:18;51.90;;;22.60;;
19219;SDS011;9744;49.364;7.484;2023-02-11T08:58:46;51.88;;;24.25;;
19219;SDS011;9744;49.364;7.484;2023-02-11T09:01:15;47.17;;;23.30;;
19219;SDS011;9744;49.364;7.484;2023-02-11T09:06:25;52.75;;;23.05;;
19219;SDS011;9744;49.364;7.484;2023-02-11T09:08:54;52.42;;;24.80;;
19219;SDS011;9744;49.364;7.484;2023-02-11T09:11:24;52.40;;;23.77;;
19219;SDS011;9744;49.364;7.484;2023-02-11T09:13:52;54.90;;;22.77;;
19219;SDS011;9744;49.364;7.484;2023-02-11T09:16:21;56.67;;;23.70;;
19219;SDS011;9744;49.364;7.484;2023-02-11T09:18:50;45.78;;;23.05;;
19219;SDS011;9744;49.364;7.484;2023-02-11T09:21:18;55.33;;;23.80;;
19219;SDS011;9744;49.364;7.484;2023-02-11T09:23:45;51.67;;;23.42;;
19219;SDS011;9744;49.364;7.484;2023-02-11T09:26:14;46.15;;;22.65;;
19219;SDS011;9744;49.364;7.484;2023-02-11T09:28:42;50.53;;;24.13;;
19219;SDS011;9744;49.364;7.484;2023-02-11T09:31:10;51.05;;;23.08;;
19219;SDS011;9744;49.364;7.484;2023-02-11T09:33:41;48.97;;;23.33;;
19219;SDS011;9744;49.364;7.484;2023-02-11T09:36:12;50.30;;;22.08;;
19219;SDS011;9744;49.364;7.484;2023-02-11T09:38:40;45.80;;;22.90;;
19219;SDS011;9744;49.364;7.484;2023-02-11T09:41:13;51.67;;;22.92;;
19219;SDS011;9744;49.364;7.484;2023-02-11T09:43:57;52.15;;;22.75;;
19219;SDS011;9744;49.364;7.484;2023-02-11T09:46:28;50.03;;;23.25;;
19219;SDS011;9744;49.364;7.484;2023-02-11T09:48:59;62.65;;;25.33;;
19219;SDS011;9744;49.364;7.484;2023-02-11T09:51:31;62.53;;;24.65;;
19219;SDS011;9744;49.364;7.484;2023-02-11T09:54:04;49.95;;;23.80;;
19219;SDS011;9744;49.364;7.484;2023-02-11T09:56:38;51.47;;;24.60;;
19219;SDS011;9744;49.364;7.484;2023-02-11T09:59:05;57.45;;;23.77;;
19219;SDS011;9744;49.364;7.484;2023-02-11T10:01:37;56.00;;;24.38;;
19219;SDS011;9744;49.364;7.484;2023-02-11T10:04:12;52.78;;;23.60;;
19219;SDS011;9744;49.364;7.484;2023-02-11T10:06:43;53.17;;;25.23;;
19219;SDS011;9744;49.364;7.484;2023-02-11T10:12:31;47.97;;;22.95;;
19219;SDS011;9744;49.364;7.484;2023-02-11T10:15:14;49.05;;;22.85;;
19219;SDS011;9744;49.364;7.484;2023-02-11T10:17:51;47.42;;;22.63;;
19219;SDS011;9744;49.364;7.484;2023-02-11T10:20:31;46.80;;;22.17;;
19219;SDS011;9744;49.364;7.484;2023-02-11T10:23:06;46.88;;;21.73;;
19219;SDS011;9744;49.364;7.484;2023-02-11T10:25:36;46.58;;;21.50;;
19219;SDS011;9744;49.364;7.484;2023-02-11T10:28:09;48.13;;;23.42;;
19219;SDS011;9744;49.364;7.484;2023-02-11T10:30:40;42.83;;;22.33;;
19219;SDS011;9744;49.364;7.484;2023-02-11T10:33:13;45.05;;;22.00;;
19219;SDS011;9744;49.364;7.484;2023-02-11T10:35:49;49.17;;;23.20;;
19219;SDS011;9744;49.364;7.484;2023-02-11T10:38:16;46.53;;;23.15;;
19219;SDS011;9744;49.364;7.484;2023-02-11T10:40:44;51.13;;;24.50;;
19219;SDS011;9744;49.364;7.484;2023-02-11T10:43:12;57.58;;;25.45;;
19219;SDS011;9744;49.364;7.484;2023-02-11T10:45:43;53.92;;;25.45;;
19219;SDS011;9744;49.364;7.484;2023-02-11T10:51:07;59.20;;;26.38;;
19219;SDS011;9744;49.364;7.484;2023-02-11T10:53:41;67.13;;;29.92;;
19219;SDS011;9744;49.364;7.484;2023-02-11T10:56:09;56.53;;;27.27;;
19219;SDS011;9744;49.364;7.484;2023-02-11T10:58:40;54.97;;;25.45;;
19219;SDS011;9744;49.364;7.484;2023-02-11T11:01:10;47.72;;;24.75;;
19219;SDS011;9744;49.364;7.484;2023-02-11T11:03:38;54.15;;;23.98;;
19219;SDS011;9744;49.364;7.484;2023-02-11T11:06:13;53.15;;;27.02;;
19219;SDS011;9744;49.364;7.484;2023-02-11T11:08:43;48.03;;;25.42;;
19219;SDS011;9744;49.364;7.484;2023-02-11T11:11:13;59.83;;;25.67;;
19219;SDS011;9744;49.364;7.484;2023-02-11T11:13:52;51.45;;;25.15;;
19219;SDS011;9744;49.364;7.484;2023-02-11T11:16:23;58.65;;;25.58;;
19219;SDS011;9744;49.364;7.484;2023-02-11T11:18:53;58.08;;;25.85;;
19219;SDS011;9744;49.364;7.484;2023-02-11T11:21:39;65.43;;;27.75;;
19219;SDS011;9744;49.364;7.484;2023-02-11T11:24:13;57.25;;;26.35;;
19219;SDS011;9744;49.364;7.484;2023-02-11T11:26:44;50.22;;;24.15;;
19219;SDS011;9744;49.364;7.484;2023-02-11T11:29:14;50.03;;;23.60;;
19219;SDS011;9744;49.364;7.484;2023-02-11T11:31:45;51.22;;;24.73;;
19219;SDS011;9744;49.364;7.484;2023-02-11T11:34:19;55.33;;;26.77;;
19219;SDS011;9744;49.364;7.484;2023-02-11T11:36:57;46.05;;;23.15;;
19219;SDS011;9744;49.364;7.484;2023-02-11T11:39:30;44.80;;;22.08;;
19219;SDS011;9744;49.364;7.484;2023-02-11T11:42:01;39.65;;;21.35;;
19219;SDS011;9744;49.364;7.484;2023-02-11T11:44:31;53.65;;;24.83;;
19219;SDS011;9744;49.364;7.484;2023-02-11T11:49:49;51.80;;;25.08;;
19219;SDS011;9744;49.364;7.484;2023-02-11T11:52:34;51.47;;;25.40;;
19219;SDS011;9744;49.364;7.484;2023-02-11T11:55:10;50.80;;;22.42;;
19219;SDS011;9744;49.364;7.484;2023-02-11T11:57:42;52.67;;;25.17;;
19219;SDS011;9744;49.364;7.484;2023-02-11T12:00:13;51.38;;;24.67;;
19219;SDS011;9744;49.364;7.484;2023-02-11T12:02:50;49.88;;;22.35;;
19219;SDS011;9744;49.364;7.484;2023-02-11T12:05:41;47.47;;;24.33;;
19219;SDS011;9744;49.364;7.484;2023-02-11T12:08:18;46.33;;;23.23;;
19219;SDS011;9744;49.364;7.484;2023-02-11T12:10:54;47.55;;;23.00;;
19219;SDS011;9744;49.364;7.484;2023-02-11T12:13:32;40.58;;;21.27;;
19219;SDS011;9744;49.364;7.484;2023-02-11T12:16:11;41.00;;;21.48;;
19219;SDS011;9744;49.364;7.484;2023-02-11T12:18:50;37.10;;;20.58;;
19219;SDS011;9744;49.364;7.484;2023-02-11T12:21:53;41.20;;;21.02;;
19219;SDS011;9744;49.364;7.484;2023-02-11T12:24:33;42.15;;;21.50;;
19219;SDS011;9744;49.364;7.484;2023-02-11T12:27:12;44.83;;;23.02;;
19219;SDS011;9744;49.364;7.484;2023-02-11T12:29:46;60.92;;;32.40;;
19219;SDS011;9744;49.364;7.484;2023-02-11T12:32:26;60.05;;;29.67;;
19219;SDS011;9744;49.364;7.484;2023-02-11T12:37:57;59.25;;;27.60;;
19219;SDS011;9744;49.364;7.484;2023-02-11T12:40:42;46.40;;;22.67;;
19219;SDS011;9744;49.364;7.484;2023-02-11T12:43:17;43.20;;;21.58;;
19219;SDS011;9744;49.364;7.484;2023-02-11T12:45:49;43.92;;;21.88;;
19219;SDS011;9744;49.364;7.484;2023-02-11T12:48:32;44.17;;;21.80;;
19219;SDS011;9744;49.364;7.484;2023-02-11T12:51:17;47.40;;;21.33;;
19219;SDS011;9744;49.364;7.484;2023-02-11T12:53:59;44.72;;;22.42;;
19219;SDS011;9744;49.364;7.484;2023-02-11T12:56:42;52.63;;;22.52;;
19219;SDS011;9744;49.364;7.484;2023-02-11T12:59:17;50.47;;;22.67;;
19219;SDS011;9744;49.364;7.484;2023-02-11T13:01:55;43.78;;;21.65;;
19219;SDS011;9744;49.364;7.484;2023-02-11T13:04:24;48.75;;;23.50;;
19219;SDS011;9744;49.364;7.484;2023-02-11T13:06:59;50.42;;;24.23;;
19219;SDS011;9744;49.364;7.484;2023-02-11T13:09:31;52.13;;;25.33;;
19219;SDS011;9744;49.364;7.484;2023-02-11T13:12:06;48.65;;;23.38;;
19219;SDS011;9744;49.364;7.484;2023-02-11T13:14:52;47.08;;;23.20;;
19219;SDS011;9744;49.364;7.484;2023-02-11T13:17:26;48.50;;;22.67;;
19219;SDS011;9744;49.364;7.484;2023-02-11T13:19:59;46.95;;;22.95;;
19219;SDS011;9744;49.364;7.484;2023-02-11T13:22:32;46.45;;;22.60;;
19219;SDS011;9744;49.364;7.484;2023-02-11T13:25:05;45.72;;;22.10;;
19219;SDS011;9744;49.364;7.484;2023-02-11T13:27:42;52.38;;;25.45;;
19219;SDS011;9744;49.364;7.484;2023-02-11T13:30:23;55.80;;;25.08;;
19219;SDS011;9744;49.364;7.484;2023-02-11T13:33:02;46.47;;;23.08;;
19219;SDS011;9744;49.364;7.484;2023-02-11T13:35:39;48.70;;;23.52;;
19219;SDS011;9744;49.364;7.484;2023-02-11T13:38:16;62.72;;;24.75;;
19219;SDS011;9744;49.364;7.484;2023-02-11T13:43:43;48.92;;;23.30;;
19219;SDS011;9744;49.364;7.484;2023-02-11T13:46:22;55.60;;;24.05;;
19219;SDS011;9744;49.364;7.484;2023-02-11T13:48:49;44.55;;;22.23;;
19219;SDS011;9744;49.364;7.484;2023-02-11T13:51:32;44.03;;;23.25;;
19219;SDS011;9744;49.364;7.484;2023-02-11T13:54:01;46.25;;;22.83;;
19219;SDS011;9744;49.364;7.484;2023-02-11T13:56:30;50.40;;;24.73;;
19219;SDS011;9744;49.364;7.484;2023-02-11T13:59:00;49.15;;;23.80;;
19219;SDS011;9744;49.364;7.484;2023-02-11T14:01:37;45.10;;;22.17;;
19219;SDS011;9744;49.364;7.484;2023-02-11T14:04:18;47.90;;;24.08;;
19219;SDS011;9744;49.364;7.484;2023-02-11T14:13:25;47.05;;;21.77;;
19219;SDS011;9744;49.364;7.484;2023-02-11T14:16:09;45.95;;;22.30;;
19219;SDS011;9744;49.364;7.484;2023-02-11T14:18:40;48.53;;;22.05;;
19219;SDS011;9744;49.364;7.484;2023-02-11T14:21:34;50.63;;;23.17;;
19219;SDS011;9744;49.364;7.484;2023-02-11T14:27:13;47.75;;;22.98;;
19219;SDS011;9744;49.364;7.484;2023-02-11T14:29:48;41.72;;;21.45;;
19219;SDS011;9744;49.364;7.484;2023-02-11T14:32:29;47.75;;;21.17;;
19219;SDS011;9744;49.364;7.484;2023-02-11T14:35:06;46.10;;;21.45;;
19219;SDS011;9744;49.364;7.484;2023-02-11T14:37:41;46.38;;;23.00;;
19219;SDS011;9744;49.364;7.484;2023-02-11T14:40:15;55.63;;;25.35;;
19219;SDS011;9744;49.364;7.484;2023-02-11T14:42:49;46.65;;;22.63;;
19219;SDS011;9744;49.364;7.484;2023-02-11T14:45:22;40.75;;;21.70;;
19219;SDS011;9744;49.364;7.484;2023-02-11T14:47:54;40.53;;;20.48;;
19219;SDS011;9744;49.364;7.484;2023-02-11T14:50:31;38.75;;;20.65;;
19219;SDS011;9744;49.364;7.484;2023-02-11T14:53:03;38.28;;;19.58;;
19219;SDS011;9744;49.364;7.484;2023-02-11T14:55:31;43.83;;;22.08;;
19219;SDS011;9744;49.364;7.484;2023-02-11T14:58:11;36.78;;;20.70;;
19219;SDS011;9744;49.364;7.484;2023-02-11T15:00:48;40.20;;;19.67;;
19219;SDS011;9744;49.364;7.484;2023-02-11T15:03:29;40.47;;;21.08;;
19219;SDS011;9744;49.364;7.484;2023-02-11T15:06:00;43.17;;;20.75;;
19219;SDS011;9744;49.364;7.484;2023-02-11T15:08:30;39.58;;;19.92;;
19219;SDS011;9744;49.364;7.484;2023-02-11T15:10:59;40.58;;;19.42;;
19219;SDS011;9744;49.364;7.484;2023-02-11T15:13:28;39.13;;;21.48;;
19219;SDS011;9744;49.364;7.484;2023-02-11T15:15:58;46.17;;;22.85;;
19219;SDS011;9744;49.364;7.484;2023-02-11T15:18:33;45.05;;;21.23;;
19219;SDS011;9744;49.364;7.484;2023-02-11T15:21:04;43.45;;;20.13;;
19219;SDS011;9744;49.364;7.484;2023-02-11T15:23:33;42.92;;;21.23;;
19219;SDS011;9744;49.364;7.484;2023-02-11T15:26:00;48.78;;;23.85;;